sensor_id;sensor_type;location;lat;lon;timestamp;pressure;altitude;pressure_sealevel;temperature;humidity
9257;BME280;4665;51.368;6.782;2023-05-10T00:00:36;100589.31;;;12.56;100.00
9257;BME280;4665;51.368;6.782;2023-05-10T00:03:01;100605.00;;;12.59;100.00
9257;BME280;4665;51.368;6.782;2023-05-10T00:05:29;100597.16;;;12.57;100.00
9257;BME280;4665;51.368;6.782;2023-05-10T00:07:55;100603.00;;;12.61;100.00
9257;BME280;4665;51.368;6.782;2023-05-10T00:10:20;100597.81;;;12.59;100.00
9257;BME280;4665;51.368;6.782;2023-05-10T00:12:45;100611.00;;;12.61;100.00
9257;BME280;4665;51.368;6.782;2023-05-10T00:15:11;100611.69;;;12.63;100.00
9257;BME280;4665;51.368;6.782;2023-05-10T00:17:36;100596.69;;;12.54;100.00
9257;BME280;4665;51.368;6.782;2023-05-10T00:20:02;100604.19;;;12.50;100.00
9257;BME280;4665;51.368;6.782;2023-05-10T00:22:30;100595.69;;;12.47;100.00
9257;BME280;4665;51.368;6.782;2023-05-10T00:24:55;100604.22;;;12.42;100.00
9257;BME280;4665;51.368;6.782;2023-05-10T00:27:21;100598.72;;;12.35;100.00
9257;BME280;4665;51.368;6.782;2023-05-10T00:29:46;100604.53;;;12.47;100.00
9257;BME280;4665;51.368;6.782;2023-05-10T00:32:12;100601.19;;;12.45;100.00
9257;BME280;4665;51.368;6.782;2023-05-10T00:34:39;100608.03;;;12.48;100.00
9257;BME280;4665;51.368;6.782;2023-05-10T00:37:04;100606.19;;;12.48;100.00
9257;BME280;4665;51.368;6.782;2023-05-10T00:39:30;100607.56;;;12.44;100.00
9257;BME280;4665;51.368;6.782;2023-05-10T00:41:56;100604.38;;;12.40;100.00
9257;BME280;4665;51.368;6.782;2023-05-10T00:44:21;100598.53;;;12.45;100.00
9257;BME280;4665;51.368;6.782;2023-05-10T00:46:47;100603.88;;;12.45;100.00
9257;BME280;4665;51.368;6.782;2023-05-10T00:49:13;100602.53;;;12.41;100.00
9257;BME280;4665;51.368;6.782;2023-05-10T00:51:39;100594.88;;;12.38;100.00
9257;BME280;4665;51.368;6.782;2023-05-10T00:54:05;100602.72;;;12.39;100.00
9257;BME280;4665;51.368;6.782;2023-05-10T00:56:30;100605.03;;;12.42;100.00
9257;BME280;4665;51.368;6.782;2023-05-10T00:58:56;100609.56;;;12.42;100.00
9257;BME280;4665;51.368;6.782;2023-05-10T01:01:22;100599.88;;;12.41;100.00
9257;BME280;4665;51.368;6.782;2023-05-10T01:03:55;100613.72;;;12.45;100.00
9257;BME280;4665;51.368;6.782;2023-05-10T01:06:21;100605.88;;;12.43;100.00
9257;BME280;4665;51.368;6.782;2023-05-10T01:08:46;100615.06;;;12.40;100.00
9257;BME280;4665;51.368;6.782;2023-05-10T01:11:12;100609.88;;;12.39;100.00
9257;BME280;4665;51.368;6.782;2023-05-10T01:13:39;100613.25;;;12.33;100.00
9257;BME280;4665;51.368;6.782;2023-05-10T01:16:07;100615.41;;;12.29;100.00
9257;BME280;4665;51.368;6.782;2023-05-10T01:18:36;100617.78;;;12.24;100.00
9257;BME280;4665;51.368;6.782;2023-05-10T01:21:30;100611.41;;;12.25;100.00
9257;BME280;4665;51.368;6.782;2023-05-10T01:27:25;100609.91;;;12.23;100.00
9257;BME280;4665;51.368;6.782;2023-05-10T01:33:01;100615.59;;;12.19;100.00
9257;BME280;4665;51.368;6.782;2023-05-10T01:35:37;100613.09;;;12.18;100.00
9257;BME280;4665;51.368;6.782;2023-05-10T01:40:41;100615.78;;;12.26;100.00
9257;BME280;4665;51.368;6.782;2023-05-10T01:43:13;100625.63;;;12.26;100.00
9257;BME280;4665;51.368;6.782;2023-05-10T01:46:01;100617.41;;;12.27;100.00
9257;BME280;4665;51.368;6.782;2023-05-10T01:48:31;100619.44;;;12.25;100.00
9257;BME280;4665;51.368;6.782;2023-05-10T01:50:58;100612.44;;;12.24;100.00
9257;BME280;4665;51.368;6.782;2023-05-10T01:53:23;100619.09;;;12.28;100.00
9257;BME280;4665;51.368;6.782;2023-05-10T01:55:52;100622.59;;;12.29;100.00
9257;BME280;4665;51.368;6.782;2023-05-10T01:58:28;100618.59;;;12.25;100.00
9257;BME280;4665;51.368;6.782;2023-05-10T02:00:55;100629.28;;;12.25;100.00
9257;BME280;4665;51.368;6.782;2023-05-10T02:03:24;100625.28;;;12.29;100.00
9257;BME280;4665;51.368;6.782;2023-05-10T02:05:52;100617.94;;;12.31;100.00
9257;BME280;4665;51.368;6.782;2023-05-10T02:08:21;100617.59;;;12.34;100.00
9257;BME280;4665;51.368;6.782;2023-05-10T02:10:49;100616.09;;;12.31;100.00
9257;BME280;4665;51.368;6.782;2023-05-10T02:13:16;100613.06;;;12.34;100.00
9257;BME280;4665;51.368;6.782;2023-05-10T02:15:43;100618.91;;;12.38;100.00
9257;BME280;4665;51.368;6.782;2023-05-10T02:18:13;100629.25;;;12.41;100.00
9257;BME280;4665;51.368;6.782;2023-05-10T02:20:39;100626.59;;;12.41;100.00
9257;BME280;4665;51.368;6.782;2023-05-10T02:23:05;100619.38;;;12.41;100.00
9257;BME280;4665;51.368;6.782;2023-05-10T02:25:32;100626.25;;;12.44;100.00
9257;BME280;4665;51.368;6.782;2023-05-10T02:28:00;100626.25;;;12.44;100.00
9257;BME280;4665;51.368;6.782;2023-05-10T02:30:27;100624.09;;;12.39;100.00
9257;BME280;4665;51.368;6.782;2023-05-10T02:32:54;100636.09;;;12.43;100.00
9257;BME280;4665;51.368;6.782;2023-05-10T02:35:22;100644.09;;;12.43;100.00
9257;BME280;4665;51.368;6.782;2023-05-10T02:37:48;100632.13;;;12.39;100.00
9257;BME280;4665;51.368;6.782;2023-05-10T02:40:15;100642.28;;;12.36;100.00
9257;BME280;4665;51.368;6.782;2023-05-10T02:42:42;100634.44;;;12.34;100.00
9257;BME280;4665;51.368;6.782;2023-05-10T02:45:12;100637.63;;;12.30;100.00
9257;BME280;4665;51.368;6.782;2023-05-10T02:47:38;100639.66;;;12.28;100.00
9257;BME280;4665;51.368;6.782;2023-05-10T02:50:04;100630.09;;;12.25;100.00
9257;BME280;4665;51.368;6.782;2023-05-10T02:52:41;100642.97;;;12.21;100.00
9257;BME280;4665;51.368;6.782;2023-05-10T02:55:09;100634.16;;;12.21;100.00
9257;BME280;4665;51.368;6.782;2023-05-10T02:57:43;100637.13;;;12.26;100.00
9257;BME280;4665;51.368;6.782;2023-05-10T03:00:11;100635.97;;;12.29;100.00
9257;BME280;4665;51.368;6.782;2023-05-10T03:02:37;100638.47;;;12.30;100.00
9257;BME280;4665;51.368;6.782;2023-05-10T03:05:02;100629.59;;;12.30;100.00
9257;BME280;4665;51.368;6.782;2023-05-10T03:07:28;100638.13;;;12.33;100.00
9257;BME280;4665;51.368;6.782;2023-05-10T03:09:55;100627.91;;;12.37;100.00
9257;BME280;4665;51.368;6.782;2023-05-10T03:12:33;100633.78;;;12.40;100.00
9257;BME280;4665;51.368;6.782;2023-05-10T03:18:04;100641.63;;;12.42;100.00
9257;BME280;4665;51.368;6.782;2023-05-10T03:20:35;100646.28;;;12.40;100.00
9257;BME280;4665;51.368;6.782;2023-05-10T03:23:13;100652.97;;;12.44;100.00
9257;BME280;4665;51.368;6.782;2023-05-10T03:25:39;100655.66;;;12.44;100.00
9257;BME280;4665;51.368;6.782;2023-05-10T03:28:06;100657.47;;;12.43;100.00
9257;BME280;4665;51.368;6.782;2023-05-10T03:30:33;100650.63;;;12.41;100.00
9257;BME280;4665;51.368;6.782;2023-05-10T03:33:07;100650.81;;;12.39;100.00
9257;BME280;4665;51.368;6.782;2023-05-10T03:35:32;100652.47;;;12.40;100.00
9257;BME280;4665;51.368;6.782;2023-05-10T03:37:58;100649.13;;;12.38;100.00
9257;BME280;4665;51.368;6.782;2023-05-10T03:40:24;100649.28;;;12.37;100.00
9257;BME280;4665;51.368;6.782;2023-05-10T03:42:51;100653.28;;;12.41;100.00
9257;BME280;4665;51.368;6.782;2023-05-10T03:45:16;100656.78;;;12.41;100.00
9257;BME280;4665;51.368;6.782;2023-05-10T03:47:41;100651.13;;;12.36;100.00
9257;BME280;4665;51.368;6.782;2023-05-10T03:50:07;100667.66;;;12.40;100.00
9257;BME280;4665;51.368;6.782;2023-05-10T03:52:33;100671.19;;;12.32;100.00
9257;BME280;4665;51.368;6.782;2023-05-10T03:54:58;100661.84;;;12.28;100.00
9257;BME280;4665;51.368;6.782;2023-05-10T03:57:24;100667.66;;;12.32;100.00
9257;BME280;4665;51.368;6.782;2023-05-10T03:59:49;100661.00;;;12.28;100.00
9257;BME280;4665;51.368;6.782;2023-05-10T04:02:15;100668.53;;;12.32;100.00
9257;BME280;4665;51.368;6.782;2023-05-10T04:04:40;100670.34;;;12.32;100.00
9257;BME280;4665;51.368;6.782;2023-05-10T04:07:06;100671.50;;;12.29;100.00
9257;BME280;4665;51.368;6.782;2023-05-10T04:09:31;100675.00;;;12.30;100.00
9257;BME280;4665;51.368;6.782;2023-05-10T04:11:58;100675.00;;;12.30;100.00
9257;BME280;4665;51.368;6.782;2023-05-10T04:14:25;100673.84;;;12.24;100.00
9257;BME280;4665;51.368;6.782;2023-05-10T04:16:50;100673.34;;;12.29;100.00
9257;BME280;4665;51.368;6.782;2023-05-10T04:19:16;100681.53;;;12.27;100.00
9257;BME280;4665;51.368;6.782;2023-05-10T04:21:42;100681.03;;;12.24;100.00
9257;BME280;4665;51.368;6.782;2023-05-10T04:24:07;100679.03;;;12.26;100.00
9257;BME280;4665;51.368;6.782;2023-05-10T04:26:32;100675.69;;;12.24;100.00
9257;BME280;4665;51.368;6.782;2023-05-10T04:28:58;100670.66;;;12.20;100.00
9257;BME280;4665;51.368;6.782;2023-05-10T04:31:23;100674.53;;;12.18;100.00
9257;BME280;4665;51.368;6.782;2023-05-10T04:33:49;100679.69;;;12.19;100.00
9257;BME280;4665;51.368;6.782;2023-05-10T04:36:15;100682.53;;;12.18;100.00
9257;BME280;4665;51.368;6.782;2023-05-10T04:38:40;100681.34;;;12.20;100.00
9257;BME280;4665;51.368;6.782;2023-05-10T04:41:07;100680.53;;;12.20;100.00
9257;BME280;4665;51.368;6.782;2023-05-10T04:43:33;100685.56;;;12.23;100.00
9257;BME280;4665;51.368;6.782;2023-05-10T04:45:59;100686.69;;;12.20;100.00
9257;BME280;4665;51.368;6.782;2023-05-10T04:48:24;100683.03;;;12.21;100.00
9257;BME280;4665;51.368;6.782;2023-05-10T04:50:50;100676.88;;;12.21;100.00
9257;BME280;4665;51.368;6.782;2023-05-10T04:53:15;100679.53;;;12.21;100.00
9257;BME280;4665;51.368;6.782;2023-05-10T04:55:41;100692.56;;;12.24;100.00
9257;BME280;4665;51.368;6.782;2023-05-10T04:58:07;100689.22;;;12.22;100.00
9257;BME280;4665;51.368;6.782;2023-05-10T05:00:33;100693.38;;;12.25;100.00
9257;BME280;4665;51.368;6.782;2023-05-10T05:03:01;100690.03;;;12.23;100.00
9257;BME280;4665;51.368;6.782;2023-05-10T05:05:26;100696.72;;;12.27;100.00
9257;BME280;4665;51.368;6.782;2023-05-10T05:07:52;100688.72;;;12.27;100.00
9257;BME280;4665;51.368;6.782;2023-05-10T05:10:17;100695.72;;;12.28;100.00
9257;BME280;4665;51.368;6.782;2023-05-10T05:12:43;100701.38;;;12.25;100.00
9257;BME280;4665;51.368;6.782;2023-05-10T05:15:08;100706.22;;;12.29;100.00
9257;BME280;4665;51.368;6.782;2023-05-10T05:17:35;100714.09;;;12.31;100.00
9257;BME280;4665;51.368;6.782;2023-05-10T05:20:01;100711.41;;;12.31;100.00
9257;BME280;4665;51.368;6.782;2023-05-10T05:22:26;100708.75;;;12.31;100.00
9257;BME280;4665;51.368;6.782;2023-05-10T05:24:57;100715.06;;;12.30;100.00
9257;BME280;4665;51.368;6.782;2023-05-10T05:27:23;100713.06;;;12.32;100.00
9257;BME280;4665;51.368;6.782;2023-05-10T05:29:54;100714.56;;;12.34;100.00
9257;BME280;4665;51.368;6.782;2023-05-10T05:32:19;100715.09;;;12.38;100.00
9257;BME280;4665;51.368;6.782;2023-05-10T05:34:45;100724.94;;;12.37;100.00
9257;BME280;4665;51.368;6.782;2023-05-10T05:37:15;100720.44;;;12.38;100.00
9257;BME280;4665;51.368;6.782;2023-05-10T05:39:42;100730.78;;;12.41;100.00
9257;BME280;4665;51.368;6.782;2023-05-10T05:42:08;100735.28;;;12.40;100.00
9257;BME280;4665;51.368;6.782;2023-05-10T05:44:34;100730.78;;;12.41;100.00
9257;BME280;4665;51.368;6.782;2023-05-10T05:47:00;100732.44;;;12.42;100.00
9257;BME280;4665;51.368;6.782;2023-05-10T05:49:25;100729.59;;;12.43;100.00
9257;BME280;4665;51.368;6.782;2023-05-10T05:51:51;100734.44;;;12.40;100.00
9257;BME280;4665;51.368;6.782;2023-05-10T05:54:16;100745.63;;;12.43;100.00
9257;BME280;4665;51.368;6.782;2023-05-10T05:56:41;100745.44;;;12.37;100.00
9257;BME280;4665;51.368;6.782;2023-05-10T05:59:07;100741.78;;;12.38;100.00
9257;BME280;4665;51.368;6.782;2023-05-10T06:01:33;100739.63;;;12.33;100.00
9257;BME280;4665;51.368;6.782;2023-05-10T06:03:58;100744.97;;;12.33;100.00
9257;BME280;4665;51.368;6.782;2023-05-10T06:06:24;100752.97;;;12.33;100.00
9257;BME280;4665;51.368;6.782;2023-05-10T06:08:49;100751.13;;;12.34;100.00
9257;BME280;4665;51.368;6.782;2023-05-10T06:11:15;100765.84;;;12.38;100.00
9257;BME280;4665;51.368;6.782;2023-05-10T06:13:40;100758.50;;;12.40;100.00
9257;BME280;4665;51.368;6.782;2023-05-10T06:16:07;100752.47;;;12.38;100.00
9257;BME280;4665;51.368;6.782;2023-05-10T06:18:32;100763.34;;;12.45;100.00
9257;BME280;4665;51.368;6.782;2023-05-10T06:20:58;100758.16;;;12.35;100.00
9257;BME280;4665;51.368;6.782;2023-05-10T06:23:23;100764.00;;;12.38;100.00
9257;BME280;4665;51.368;6.782;2023-05-10T06:25:51;100764.81;;;12.39;100.00
9257;BME280;4665;51.368;6.782;2023-05-10T06:28:16;100773.19;;;12.36;100.00
9257;BME280;4665;51.368;6.782;2023-05-10T06:30:42;100770.53;;;12.28;100.00
9257;BME280;4665;51.368;6.782;2023-05-10T06:33:07;100777.88;;;12.26;100.00
9257;BME280;4665;51.368;6.782;2023-05-10T06:35:33;100773.50;;;12.25;100.00
9257;BME280;4665;51.368;6.782;2023-05-10T06:37:58;100776.84;;;12.27;100.00
9257;BME280;4665;51.368;6.782;2023-05-10T06:40:24;100776.50;;;12.30;100.00
9257;BME280;4665;51.368;6.782;2023-05-10T06:42:49;100786.19;;;12.39;100.00
9257;BME280;4665;51.368;6.782;2023-05-10T06:45:15;100784.19;;;12.41;100.00
9257;BME280;4665;51.368;6.782;2023-05-10T06:47:41;100782.03;;;12.45;100.00
9257;BME280;4665;51.368;6.782;2023-05-10T06:50:10;100788.53;;;12.50;100.00
9257;BME280;4665;51.368;6.782;2023-05-10T06:52:38;100788.03;;;12.55;100.00
9257;BME280;4665;51.368;6.782;2023-05-10T06:55:04;100777.84;;;12.50;100.00
9257;BME280;4665;51.368;6.782;2023-05-10T06:57:30;100780.84;;;12.55;100.00
9257;BME280;4665;51.368;6.782;2023-05-10T06:59:56;100784.88;;;12.59;100.00
9257;BME280;4665;51.368;6.782;2023-05-10T07:02:22;100794.88;;;12.57;100.00
9257;BME280;4665;51.368;6.782;2023-05-10T07:04:48;100794.88;;;12.57;100.00
9257;BME280;4665;51.368;6.782;2023-05-10T07:07:14;100791.88;;;12.52;100.00
9257;BME280;4665;51.368;6.782;2023-05-10T07:09:39;100793.56;;;12.53;100.00
9257;BME280;4665;51.368;6.782;2023-05-10T07:12:05;100793.91;;;12.42;100.00
9257;BME280;4665;51.368;6.782;2023-05-10T07:14:30;100798.56;;;12.40;100.00
9257;BME280;4665;51.368;6.782;2023-05-10T07:16:56;100796.72;;;12.40;100.00
9257;BME280;4665;51.368;6.782;2023-05-10T07:19:21;100800.75;;;12.45;100.00
9257;BME280;4665;51.368;6.782;2023-05-10T07:21:47;100803.41;;;12.45;100.00
9257;BME280;4665;51.368;6.782;2023-05-10T07:24:12;100806.75;;;12.47;100.00
9257;BME280;4665;51.368;6.782;2023-05-10T07:26:39;100799.56;;;12.47;100.00
9257;BME280;4665;51.368;6.782;2023-05-10T07:29:04;100808.25;;;12.49;100.00
9257;BME280;4665;51.368;6.782;2023-05-10T07:31:30;100807.09;;;12.52;100.00
9257;BME280;4665;51.368;6.782;2023-05-10T07:33:55;100808.59;;;12.54;100.00
9257;BME280;4665;51.368;6.782;2023-05-10T07:36:21;100804.91;;;12.55;100.00
9257;BME280;4665;51.368;6.782;2023-05-10T07:38:47;100805.59;;;12.49;100.00
9257;BME280;4665;51.368;6.782;2023-05-10T07:41:12;100807.25;;;12.58;100.00
9257;BME280;4665;51.368;6.782;2023-05-10T07:43:38;100808.25;;;12.66;100.00
9257;BME280;4665;51.368;6.782;2023-05-10T07:46:03;100816.94;;;12.68;100.00
9257;BME280;4665;51.368;6.782;2023-05-10T07:48:29;100812.28;;;12.70;100.00
9257;BME280;4665;51.368;6.782;2023-05-10T07:50:54;100809.25;;;12.73;100.00
9257;BME280;4665;51.368;6.782;2023-05-10T07:53:20;100819.94;;;12.81;100.00
9257;BME280;4665;51.368;6.782;2023-05-10T07:55:58;100821.09;;;12.78;100.00
9257;BME280;4665;51.368;6.782;2023-05-10T07:58:24;100826.28;;;12.80;100.00
9257;BME280;4665;51.368;6.782;2023-05-10T08:00:50;100818.94;;;12.82;100.00
9257;BME280;4665;51.368;6.782;2023-05-10T08:03:15;100824.28;;;12.82;100.00
9257;BME280;4665;51.368;6.782;2023-05-10T08:05:41;100819.28;;;12.79;100.00
9257;BME280;4665;51.368;6.782;2023-05-10T08:08:07;100821.47;;;12.83;100.00
9257;BME280;4665;51.368;6.782;2023-05-10T08:10:32;100820.28;;;12.86;100.00
9257;BME280;4665;51.368;6.782;2023-05-10T08:12:58;100824.78;;;12.69;100.00
9257;BME280;4665;51.368;6.782;2023-05-10T08:15:24;100827.66;;;12.68;100.00
9257;BME280;4665;51.368;6.782;2023-05-10T08:17:51;100822.28;;;12.68;100.00
9257;BME280;4665;51.368;6.782;2023-05-10T08:20:17;100825.94;;;12.83;100.00
9257;BME280;4665;51.368;6.782;2023-05-10T08:22:45;100836.50;;;12.93;100.00
9257;BME280;4665;51.368;6.782;2023-05-10T08:25:11;100827.81;;;12.91;100.00
9257;BME280;4665;51.368;6.782;2023-05-10T08:27:36;100838.66;;;12.89;100.00
9257;BME280;4665;51.368;6.782;2023-05-10T08:30:02;100839.16;;;12.93;100.00
9257;BME280;4665;51.368;6.782;2023-05-10T08:32:27;100830.47;;;12.91;100.00
9257;BME280;4665;51.368;6.782;2023-05-10T08:34:53;100843.00;;;12.98;100.00
9257;BME280;4665;51.368;6.782;2023-05-10T08:37:18;100840.31;;;12.98;100.00
9257;BME280;4665;51.368;6.782;2023-05-10T08:39:43;100836.13;;;13.04;100.00
9257;BME280;4665;51.368;6.782;2023-05-10T08:42:11;100833.78;;;13.01;100.00
9257;BME280;4665;51.368;6.782;2023-05-10T08:44:37;100845.66;;;13.07;100.00
9257;BME280;4665;51.368;6.782;2023-05-10T08:47:05;100849.00;;;13.00;100.00
9257;BME280;4665;51.368;6.782;2023-05-10T08:49:32;100845.34;;;12.93;100.00
9257;BME280;4665;51.368;6.782;2023-05-10T08:52:03;100855.34;;;12.99;100.00
9257;BME280;4665;51.368;6.782;2023-05-10T08:54:30;100856.53;;;12.89;100.00
9257;BME280;4665;51.368;6.782;2023-05-10T08:56:56;100855.53;;;12.81;100.00
9257;BME280;4665;51.368;6.782;2023-05-10T08:59:22;100859.38;;;12.87;100.00
9257;BME280;4665;51.368;6.782;2023-05-10T09:01:49;100869.72;;;12.90;100.00
9257;BME280;4665;51.368;6.782;2023-05-10T09:04:15;100857.19;;;12.82;100.00
9257;BME280;4665;51.368;6.782;2023-05-10T09:06:41;100871.09;;;12.86;100.00
9257;BME280;4665;51.368;6.782;2023-05-10T09:09:06;100872.06;;;12.85;100.00
9257;BME280;4665;51.368;6.782;2023-05-10T09:11:32;100871.91;;;12.87;100.00
9257;BME280;4665;51.368;6.782;2023-05-10T09:13:58;100868.41;;;12.86;100.00
9257;BME280;4665;51.368;6.782;2023-05-10T09:16:23;100874.44;;;12.88;100.00
9257;BME280;4665;51.368;6.782;2023-05-10T09:18:49;100880.75;;;12.87;100.00
9257;BME280;4665;51.368;6.782;2023-05-10T09:21:14;100874.59;;;12.87;100.00
9257;BME280;4665;51.368;6.782;2023-05-10T09:23:44;100876.59;;;12.84;100.00
9257;BME280;4665;51.368;6.782;2023-05-10T09:26:10;100866.72;;;12.85;100.00
9257;BME280;4665;51.368;6.782;2023-05-10T09:28:53;100866.53;;;12.95;100.00
9257;BME280;4665;51.368;6.782;2023-05-10T09:31:18;100864.38;;;12.98;100.00
9257;BME280;4665;51.368;6.782;2023-05-10T09:33:46;100869.75;;;13.07;100.00
9257;BME280;4665;51.368;6.782;2023-05-10T09:36:12;100859.03;;;13.07;100.00
9257;BME280;4665;51.368;6.782;2023-05-10T09:38:51;100868.88;;;13.14;100.00
9257;BME280;4665;51.368;6.782;2023-05-10T09:41:23;100873.41;;;13.14;100.00
9257;BME280;4665;51.368;6.782;2023-05-10T09:43:49;100874.72;;;13.18;100.00
9257;BME280;4665;51.368;6.782;2023-05-10T09:46:16;100869.88;;;13.13;100.00
9257;BME280;4665;51.368;6.782;2023-05-10T09:48:45;100876.72;;;13.16;100.00
9257;BME280;4665;51.368;6.782;2023-05-10T09:51:24;100877.75;;;13.07;100.00
9257;BME280;4665;51.368;6.782;2023-05-10T09:54:13;100868.72;;;13.08;100.00
9257;BME280;4665;51.368;6.782;2023-05-10T09:56:39;100878.56;;;13.15;100.00
9257;BME280;4665;51.368;6.782;2023-05-10T09:59:07;100876.72;;;13.16;100.00
9257;BME280;4665;51.368;6.782;2023-05-10T10:01:36;100874.22;;;13.22;100.00
9257;BME280;4665;51.368;6.782;2023-05-10T10:04:06;100876.72;;;13.24;100.00
9257;BME280;4665;51.368;6.782;2023-05-10T10:06:39;100879.56;;;13.22;100.00
9257;BME280;4665;51.368;6.782;2023-05-10T10:09:08;100871.38;;;13.24;100.00
9257;BME280;4665;51.368;6.782;2023-05-10T10:11:35;100878.38;;;13.25;100.00
9257;BME280;4665;51.368;6.782;2023-05-10T10:14:01;100885.41;;;13.26;100.00
9257;BME280;4665;51.368;6.782;2023-05-10T10:16:29;100883.09;;;13.15;100.00
9257;BME280;4665;51.368;6.782;2023-05-10T10:18:55;100885.59;;;13.08;100.00
9257;BME280;4665;51.368;6.782;2023-05-10T10:21:22;100894.63;;;13.07;100.00
9257;BME280;4665;51.368;6.782;2023-05-10T10:23:47;100885.63;;;13.00;100.00
9257;BME280;4665;51.368;6.782;2023-05-10T10:26:14;100899.81;;;13.00;100.00
9257;BME280;4665;51.368;6.782;2023-05-10T10:31:36;100902.50;;;13.00;100.00
9257;BME280;4665;51.368;6.782;2023-05-10T10:34:08;100902.50;;;13.00;100.00
9257;BME280;4665;51.368;6.782;2023-05-10T10:36:43;100905.84;;;13.02;100.00
9257;BME280;4665;51.368;6.782;2023-05-10T10:39:10;100905.00;;;13.02;100.00
9257;BME280;4665;51.368;6.782;2023-05-10T10:41:39;100897.00;;;13.02;100.00
9257;BME280;4665;51.368;6.782;2023-05-10T10:52:37;100904.03;;;13.28;100.00
9257;BME280;4665;51.368;6.782;2023-05-10T10:58:02;100893.31;;;13.28;100.00
9257;BME280;4665;51.368;6.782;2023-05-10T11:00:31;100899.66;;;13.35;100.00
9257;BME280;4665;51.368;6.782;2023-05-10T11:02:59;100901.47;;;13.26;100.00
9257;BME280;4665;51.368;6.782;2023-05-10T11:08:20;100899.47;;;13.20;100.00
9257;BME280;4665;51.368;6.782;2023-05-10T11:13:37;100898.78;;;13.18;100.00
9257;BME280;4665;51.368;6.782;2023-05-10T11:16:19;100899.31;;;13.21;100.00
9257;BME280;4665;51.368;6.782;2023-05-10T11:18:59;100910.69;;;13.32;100.00
9257;BME280;4665;51.368;6.782;2023-05-10T11:21:27;100907.16;;;13.31;100.00
9257;BME280;4665;51.368;6.782;2023-05-10T11:23:55;100902.16;;;13.36;100.00
9257;BME280;4665;51.368;6.782;2023-05-10T11:26:31;100918.19;;;13.44;100.00
9257;BME280;4665;51.368;6.782;2023-05-10T11:28:57;100913.50;;;13.46;100.00
9257;BME280;4665;51.368;6.782;2023-05-10T11:31:28;100913.84;;;13.52;100.00
9257;BME280;4665;51.368;6.782;2023-05-10T11:33:55;100913.47;;;13.55;100.00
9257;BME280;4665;51.368;6.782;2023-05-10T11:36:25;100914.97;;;13.65;100.00
9257;BME280;4665;51.368;6.782;2023-05-10T11:38:51;100915.63;;;13.67;100.00
9257;BME280;4665;51.368;6.782;2023-05-10T11:41:18;100930.84;;;13.75;100.00
9257;BME280;4665;51.368;6.782;2023-05-10T11:43:46;100916.47;;;13.68;100.00
9257;BME280;4665;51.368;6.782;2023-05-10T11:46:14;100921.81;;;13.68;100.00
9257;BME280;4665;51.368;6.782;2023-05-10T11:48:40;100918.00;;;13.62;100.00
9257;BME280;4665;51.368;6.782;2023-05-10T11:51:07;100919.31;;;13.66;100.00
9257;BME280;4665;51.368;6.782;2023-05-10T11:53:33;100919.97;;;13.68;100.00
9257;BME280;4665;51.368;6.782;2023-05-10T11:58:31;100929.50;;;13.71;100.00
9257;BME280;4665;51.368;6.782;2023-05-10T12:00:58;100922.81;;;13.75;100.00
9257;BME280;4665;51.368;6.782;2023-05-10T12:03:23;100917.97;;;13.79;100.00
9257;BME280;4665;51.368;6.782;2023-05-10T12:05:49;100920.13;;;13.75;100.00
9257;BME280;4665;51.368;6.782;2023-05-10T12:08:15;100915.44;;;13.77;100.00
9257;BME280;4665;51.368;6.782;2023-05-10T12:10:41;100917.97;;;13.79;100.00
9257;BME280;4665;51.368;6.782;2023-05-10T12:13:14;100922.13;;;13.81;100.00
9257;BME280;4665;51.368;6.782;2023-05-10T12:15:41;100930.31;;;13.88;100.00
9257;BME280;4665;51.368;6.782;2023-05-10T12:18:11;100923.78;;;13.91;100.00
9257;BME280;4665;51.368;6.782;2023-05-10T12:20:38;100925.25;;;13.93;100.00
9257;BME280;4665;51.368;6.782;2023-05-10T12:23:04;100921.75;;;13.93;100.00
9257;BME280;4665;51.368;6.782;2023-05-10T12:25:34;100923.56;;;13.92;100.00
9257;BME280;4665;51.368;6.782;2023-05-10T12:28:03;100922.75;;;13.92;100.00
9257;BME280;4665;51.368;6.782;2023-05-10T12:30:30;100924.06;;;13.96;100.00
9257;BME280;4665;51.368;6.782;2023-05-10T12:35:43;100917.69;;;14.05;100.00
9257;BME280;4665;51.368;6.782;2023-05-10T12:38:37;100924.31;;;14.17;100.00
9257;BME280;4665;51.368;6.782;2023-05-10T12:41:06;100920.94;;;14.23;100.00
9257;BME280;4665;51.368;6.782;2023-05-10T12:43:32;100916.56;;;14.30;100.00
9257;BME280;4665;51.368;6.782;2023-05-10T12:45:58;100914.59;;;14.47;100.00
9257;BME280;4665;51.368;6.782;2023-05-10T12:48:24;100911.41;;;14.52;100.00
9257;BME280;4665;51.368;6.782;2023-05-10T12:50:50;100913.19;;;14.68;100.00
9257;BME280;4665;51.368;6.782;2023-05-10T12:53:16;100921.34;;;14.75;100.00
9257;BME280;4665;51.368;6.782;2023-05-10T12:55:45;100927.00;;;14.80;100.00
9257;BME280;4665;51.368;6.782;2023-05-10T12:58:10;100918.25;;;14.86;100.00
9257;BME280;4665;51.368;6.782;2023-05-10T13:00:36;100917.22;;;14.87;100.00
9257;BME280;4665;51.368;6.782;2023-05-10T13:03:04;100919.38;;;14.91;100.00
9257;BME280;4665;51.368;6.782;2023-05-10T13:05:32;100919.50;;;14.98;100.00
9257;BME280;4665;51.368;6.782;2023-05-10T13:07:57;100918.16;;;14.94;100.00
9257;BME280;4665;51.368;6.782;2023-05-10T13:10:23;100925.63;;;15.07;100.00
9257;BME280;4665;51.368;6.782;2023-05-10T13:12:49;100920.81;;;15.17;100.00
9257;BME280;4665;51.368;6.782;2023-05-10T13:15:14;100915.97;;;15.35;100.00
9257;BME280;4665;51.368;6.782;2023-05-10T13:17:40;100923.03;;;15.36;100.00
9257;BME280;4665;51.368;6.782;2023-05-10T13:20:06;100920.50;;;15.35;100.00
9257;BME280;4665;51.368;6.782;2023-05-10T13:22:31;100919.31;;;15.38;100.00
9257;BME280;4665;51.368;6.782;2023-05-10T13:24:57;100923.56;;;15.47;100.00
9257;BME280;4665;51.368;6.782;2023-05-10T13:27:22;100923.09;;;15.43;100.00
9257;BME280;4665;51.368;6.782;2023-05-10T13:29:48;100924.13;;;15.42;100.00
9257;BME280;4665;51.368;6.782;2023-05-10T13:32:13;100921.72;;;15.47;100.00
9257;BME280;4665;51.368;6.782;2023-05-10T13:34:39;100923.69;;;15.53;100.00
9257;BME280;4665;51.368;6.782;2023-05-10T13:37:04;100913.22;;;15.58;100.00